Time;durP1;ratioP1;P1;durP2;ratioP2;P2;SDS_P1;SDS_P2;PMS_P1;PMS_P2;Temp;Humidity;BMP_temperature;BMP_pressure;BME280_temperature;BME280_humidity;BME280_pressure;Samples;Min_cycle;Max_cycle;Signal;HPM_P1;HPM_P2
2021/12/01 00:01:00;;;;;;;14.60;7.63;;;;;;;;;;5011257;28;20053;-81
2021/12/01 00:03:26;;;;;;;16.88;8.00;;;;;;;;;;5016078;28;20041;-81
2021/12/01 00:05:52;;;;;;;20.48;9.30;;;;;;;;;;4999150;28;20033;-82
2021/12/01 00:08:19;;;;;;;16.40;7.70;;;;;;;;;;5016723;28;20969;-81
2021/12/01 00:10:46;;;;;;;18.40;9.15;;;;;;;;;;5013372;28;20132;-81
2021/12/01 00:13:15;;;;;;;18.40;9.07;;;;;;;;;;4998183;28;20049;-81
2021/12/01 00:15:42;;;;;;;18.05;9.00;;;;;;;;;;4995862;28;20045;-82
2021/12/01 00:18:09;;;;;;;19.38;9.23;;;;;;;;;;4995116;28;20128;-82
2021/12/01 00:20:35;;;;;;;17.25;8.48;;;;;;;;;;5008692;28;20038;-82
2021/12/01 00:23:02;;;;;;;17.42;8.45;;;;;;;;;;5015598;28;20053;-82
2021/12/01 00:25:29;;;;;;;16.98;7.65;;;;;;;;;;5018334;28;20077;-82
2021/12/01 00:27:56;;;;;;;15.30;7.45;;;;;;;;;;5014488;28;20053;-82
2021/12/01 00:30:23;;;;;;;14.75;6.38;;;;;;;;;;4992761;28;20112;-80
2021/12/01 00:32:49;;;;;;;15.25;6.40;;;;;;;;;;5010770;28;20041;-81
2021/12/01 00:35:15;;;;;;;11.15;6.47;;;;;;;;;;5012462;28;20121;-82
2021/12/01 00:37:42;;;;;;;10.88;7.28;;;;;;;;;;5008409;28;20045;-82
2021/12/01 00:40:10;;;;;;;13.13;6.78;;;;;;;;;;5000687;28;20096;-82
2021/12/01 00:42:36;;;;;;;20.77;7.93;;;;;;;;;;4992612;28;20120;-82
2021/12/01 00:45:12;;;;;;;13.63;6.45;;;;;;;;;;5003792;28;20457;-82
2021/12/01 00:47:50;;;;;;;16.33;6.57;;;;;;;;;;4995638;28;20078;-82
2021/12/01 00:50:23;;;;;;;14.02;7.28;;;;;;;;;;5015025;28;20648;-82
2021/12/01 00:52:49;;;;;;;14.18;7.03;;;;;;;;;;5008444;28;20052;-82
2021/12/01 00:55:16;;;;;;;15.23;6.38;;;;;;;;;;4999865;28;20163;-82
2021/12/01 00:57:43;;;;;;;14.30;7.30;;;;;;;;;;4994350;28;20058;-81
2021/12/01 01:00:10;;;;;;;12.48;5.88;;;;;;;;;;5018272;28;20044;-83
2021/12/01 01:02:36;;;;;;;11.70;6.40;;;9.30;99.90;;;;;;5001682;28;20360;-84
2021/12/01 01:05:03;;;;;;;13.65;6.10;;;;;;;;;;5013705;28;20053;-84
2021/12/01 01:07:29;;;;;;;11.95;6.68;;;;;;;;;;5011159;28;20045;-83
2021/12/01 01:09:58;;;;;;;11.10;5.35;;;;;;;;;;5018776;28;20297;-84
2021/12/01 01:18:07;;;;;;;14.68;6.20;;;;;;;;;;5024146;28;20484;-83
2021/12/01 01:20:34;;;;;;;11.20;5.38;;;;;;;;;;5011581;28;20045;-82
2021/12/01 01:23:01;;;;;;;12.70;4.80;;;;;;;;;;5009528;28;20080;-82
2021/12/01 01:25:28;;;;;;;12.45;5.40;;;;;;;;;;5011149;28;20058;-83
2021/12/01 01:27:55;;;;;;;13.20;5.35;;;;;;;;;;5006681;28;20038;-82
2021/12/01 01:30:21;;;;;;;8.63;5.05;;;;;;;;;;4999550;28;20497;-83
2021/12/01 01:32:47;;;;;;;9.85;4.85;;;;;;;;;;5019793;28;20044;-84
2021/12/01 01:35:14;;;;;;;15.38;5.32;;;;;;;;;;5015842;28;20413;-84
2021/12/01 01:37:41;;;;;;;14.40;5.00;;;;;;;;;;5008285;28;20400;-83
2021/12/01 01:40:08;;;;;;;9.35;3.83;;;;;;;;;;5017832;28;20053;-83
2021/12/01 01:42:34;;;;;;;11.65;4.88;;;;;;;;;;5013390;28;20044;-83
2021/12/01 01:45:00;;;;;;;11.75;3.97;;;;;;;;;;5021783;28;20041;-84
2021/12/01 01:47:26;;;;;;;8.63;3.10;;;;;;;;;;5007475;28;20428;-84
2021/12/01 01:49:58;;;;;;;11.45;4.03;;;;;;;;;;5010226;28;20518;-84
2021/12/01 01:52:26;;;;;;;7.00;2.42;;;;;;;;;;5013785;28;20046;-84
2021/12/01 01:54:52;;;;;;;10.73;4.35;;;;;;;;;;5003305;28;20138;-84
2021/12/01 01:57:18;;;;;;;5.32;1.98;;;;;;;;;;5010336;28;20072;-84
2021/12/01 01:59:45;;;;;;;7.07;2.90;;;;;;;;;;5017232;28;20577;-84
2021/12/01 02:02:11;;;;;;;11.15;2.97;;;;;;;;;;5005507;28;20481;-84
2021/12/01 02:04:38;;;;;;;10.05;3.08;;;;;;;;;;5013976;28;20488;-84
2021/12/01 02:07:05;;;;;;;7.38;2.83;;;;;;;;;;5009068;28;20034;-84
2021/12/01 02:09:31;;;;;;;11.43;3.40;;;;;;;;;;5035349;28;20046;-84
2021/12/01 02:11:59;;;;;;;9.02;2.13;;;;;;;;;;5007298;28;20042;-84
2021/12/01 02:14:25;;;;;;;11.32;2.70;;;;;;;;;;5017415;28;20180;-84
2021/12/01 02:16:51;;;;;;;10.48;2.80;;;;;;;;;;5021325;28;20060;-82
2021/12/01 02:19:18;;;;;;;4.15;1.30;;;;;;;;;;5030094;28;20092;-83
2021/12/01 02:21:44;;;;;;;6.90;1.60;;;;;;;;;;5023791;28;20041;-82
2021/12/01 02:24:12;;;;;;;6.72;1.75;;;;;;;;;;5027727;28;20041;-81
2021/12/01 02:26:40;;;;;;;4.18;0.88;;;;;;;;;;5004972;28;20046;-82
2021/12/01 02:29:09;;;;;;;2.60;1.10;;;;;;;;;;5022507;28;20334;-81
2021/12/01 02:31:37;;;;;;;8.02;1.52;;;;;;;;;;5022678;28;20216;-81
2021/12/01 02:34:05;;;;;;;6.57;1.77;;;;;;;;;;5018739;28;20033;-82
2021/12/01 02:36:31;;;;;;;7.05;1.80;;;;;;;;;;5010198;28;20037;-82
2021/12/01 02:38:58;;;;;;;5.63;1.52;;;;;;;;;;5009605;28;20080;-82
2021/12/01 02:41:28;;;;;;;9.00;1.73;;;;;;;;;;5022608;28;20056;-79
2021/12/01 02:43:55;;;;;;;10.73;1.95;;;;;;;;;;5023071;28;20042;-82
2021/12/01 02:46:21;;;;;;;6.95;1.35;;;9.20;99.90;;;;;;5009444;28;20132;-81
2021/12/01 02:48:48;;;;;;;7.32;2.15;;;;;;;;;;5004128;28;20042;-81
2021/12/01 02:51:15;;;;;;;2.67;1.27;;;;;;;;;;5014806;28;20044;-81
2021/12/01 02:53:42;;;;;;;10.00;2.17;;;;;;;;;;5004888;28;20076;-82
2021/12/01 02:56:09;;;;;;;5.20;1.20;;;9.40;99.90;;;;;;5014604;28;20569;-82
2021/12/01 02:58:42;;;;;;;4.75;1.50;;;;;;;;;;5007859;28;20037;-81
2021/12/01 03:01:10;;;;;;;9.38;1.38;;;;;;;;;;5003352;28;20376;-80
2021/12/01 03:03:38;;;;;;;9.55;1.70;;;;;;;;;;5008594;28;20402;-81
2021/12/01 03:06:05;;;;;;;8.55;1.23;;;;;;;;;;5015043;28;20034;-81
2021/12/01 03:08:31;;;;;;;5.28;1.27;;;;;;;;;;5016131;28;20042;-81
2021/12/01 03:10:58;;;;;;;11.73;1.95;;;;;;;;;;5009074;28;20407;-81
2021/12/01 03:13:25;;;;;;;7.93;1.45;;;;;;;;;;5013418;28;20045;-79
2021/12/01 03:15:51;;;;;;;4.70;1.42;;;;;;;;;;5023776;28;20090;-82
2021/12/01 03:18:18;;;;;;;13.05;1.95;;;;;;;;;;5019369;28;20048;-81
2021/12/01 03:20:46;;;;;;;9.60;2.08;;;9.60;99.90;;;;;;5015514;28;20052;-82
2021/12/01 03:23:13;;;;;;;8.18;1.50;;;9.60;99.90;;;;;;5022668;28;20124;-81
2021/12/01 03:25:39;;;;;;;10.07;2.13;;;;;;;;;;5031148;28;20057;-81
2021/12/01 03:28:07;;;;;;;11.18;2.20;;;9.60;99.90;;;;;;5032152;28;20048;-81
2021/12/01 03:30:34;;;;;;;12.68;2.10;;;;;;;;;;5017295;28;20037;-82
2021/12/01 03:33:05;;;;;;;7.38;1.55;;;;;;;;;;5002030;28;20498;-82
2021/12/01 03:35:32;;;;;;;15.15;2.78;;;;;;;;;;5019771;28;20049;-81
2021/12/01 03:37:58;;;;;;;10.52;3.10;;;;;;;;;;5018610;28;20046;-82
2021/12/01 03:40:24;;;;;;;9.77;2.72;;;;;;;;;;5005865;28;20066;-80
2021/12/01 03:42:51;;;;;;;10.40;2.50;;;;;;;;;;5028677;28;20418;-82
2021/12/01 03:45:17;;;;;;;17.30;2.17;;;;;;;;;;5016877;28;20037;-83
2021/12/01 03:47:44;;;;;;;13.02;2.70;;;9.40;99.90;;;;;;5021970;28;20044;-82
2021/12/01 03:50:11;;;;;;;13.20;2.53;;;;;;;;;;5012956;28;20050;-83
2021/12/01 03:52:37;;;;;;;13.82;2.45;;;;;;;;;;5013099;28;20465;-82
2021/12/01 03:55:05;;;;;;;16.00;3.00;;;9.50;99.90;;;;;;5013486;28;20048;-83
2021/12/01 03:57:31;;;;;;;10.35;2.85;;;9.40;99.90;;;;;;5018787;28;20052;-82
2021/12/01 03:59:57;;;;;;;13.38;2.33;;;;;;;;;;5020078;28;20831;-81
2021/12/01 04:02:24;;;;;;;10.07;2.35;;;;;;;;;;5007031;28;20037;-82
2021/12/01 04:04:50;;;;;;;10.95;2.70;;;;;;;;;;5017864;28;20049;-82
2021/12/01 04:07:17;;;;;;;15.70;3.83;;;;;;;;;;5010564;28;20045;-82
2021/12/01 04:09:44;;;;;;;17.48;4.50;;;9.40;99.90;;;;;;5021394;28;20087;-82
2021/12/01 04:12:10;;;;;;;18.02;3.28;;;;;;;;;;5022815;28;20063;-82
2021/12/01 04:14:37;;;;;;;15.45;3.45;;;;;;;;;;5019120;28;20044;-81
2021/12/01 04:17:04;;;;;;;14.48;3.35;;;;;;;;;;5020709;28;20465;-82
2021/12/01 04:19:30;;;;;;;15.18;3.67;;;;;;;;;;5007294;28;20453;-81
2021/12/01 04:21:56;;;;;;;15.25;4.38;;;;;;;;;;5023791;28;20045;-81
2021/12/01 04:24:22;;;;;;;12.85;3.05;;;;;;;;;;5026258;28;20414;-81
2021/12/01 04:26:49;;;;;;;13.25;3.20;;;;;;;;;;5006690;28;20044;-82
2021/12/01 04:29:15;;;;;;;11.70;3.15;;;;;;;;;;5029882;28;20048;-80
2021/12/01 04:31:42;;;;;;;11.82;3.78;;;;;;;;;;5022562;28;20041;-80
2021/12/01 04:34:09;;;;;;;14.60;3.38;;;;;;;;;;5011381;28;20103;-81
2021/12/01 04:36:39;;;;;;;12.40;2.55;;;9.50;99.90;;;;;;5029389;28;20634;-81
2021/12/01 04:39:07;;;;;;;12.48;3.22;;;;;;;;;;5004557;28;20098;-80
2021/12/01 04:41:38;;;;;;;12.65;2.42;;;;;;;;;;5026419;28;20048;-81
2021/12/01 04:44:09;;;;;;;10.25;2.67;;;;;;;;;;5022970;28;20052;-81
2021/12/01 04:46:47;;;;;;;8.70;2.10;;;;;;;;;;5013711;28;20037;-82
2021/12/01 04:49:16;;;;;;;8.80;1.35;;;;;;;;;;5022408;28;20503;-81
2021/12/01 04:51:43;;;;;;;3.83;1.35;;;;;;;;;;5001349;28;20032;-81
2021/12/01 04:54:09;;;;;;;3.70;1.23;;;;;;;;;;5012858;28;20033;-80
2021/12/01 04:56:36;;;;;;;5.60;1.40;;;;;;;;;;5018513;28;20064;-81
2021/12/01 04:59:03;;;;;;;7.35;0.80;;;;;;;;;;5018014;28;20502;-81
2021/12/01 05:01:29;;;;;;;7.18;1.75;;;;;;;;;;5021053;28;20048;-81
2021/12/01 05:03:55;;;;;;;6.45;1.95;;;;;;;;;;5010650;28;20041;-82
2021/12/01 05:06:22;;;;;;;5.45;1.63;;;;;;;;;;5024189;28;20086;-81
2021/12/01 05:08:49;;;;;;;5.53;1.50;;;;;;;;;;5008673;28;20041;-81
2021/12/01 05:11:15;;;;;;;5.78;1.30;;;;;;;;;;5034207;28;20063;-82
2021/12/01 05:13:42;;;;;;;3.80;1.20;;;;;;;;;;5010988;28;20048;-83
2021/12/01 05:16:08;;;;;;;2.17;1.00;;;;;;;;;;5010208;28;20041;-82
2021/12/01 05:18:34;;;;;;;8.10;1.58;;;;;;;;;;5022535;28;20049;-83
2021/12/01 05:21:00;;;;;;;1.77;0.88;;;;;;;;;;5003552;28;20541;-82
2021/12/01 05:23:27;;;;;;;2.38;0.98;;;;;;;;;;5015417;28;20054;-82
2021/12/01 05:25:53;;;;;;;1.17;0.50;;;;;;;;;;5012111;28;20561;-83
2021/12/01 05:28:19;;;;;;;1.58;0.52;;;;;;;;;;5015485;28;20128;-84
2021/12/01 05:30:45;;;;;;;1.25;0.50;;;;;;;;;;5016923;28;20071;-83
2021/12/01 05:33:14;;;;;;;0.85;0.47;;;;;;;;;;5022242;28;20616;-82
2021/12/01 05:35:42;;;;;;;0.85;0.55;;;;;;;;;;5007004;28;20060;-82
2021/12/01 05:38:09;;;;;;;0.88;0.30;;;;;;;;;;5016950;28;20049;-81
2021/12/01 05:40:35;;;;;;;1.35;0.40;;;;;;;;;;5019409;28;20042;-82
2021/12/01 05:43:01;;;;;;;0.70;0.40;;;;;;;;;;5021619;28;20053;-80
2021/12/01 05:45:27;;;;;;;0.73;0.35;;;;;;;;;;5019100;28;20033;-81
2021/12/01 05:47:54;;;;;;;0.13;0.10;;;;;;;;;;5006003;28;20120;-86
2021/12/01 05:50:20;;;;;;;0.38;0.17;;;;;;;;;;5021080;28;20778;-83
2021/12/01 05:52:46;;;;;;;1.77;0.20;;;9.20;99.90;;;;;;5002306;28;20042;-84
2021/12/01 05:55:12;;;;;;;0.73;0.38;;;;;;;;;;5001217;28;20041;-82
2021/12/01 05:57:38;;;;;;;1.38;0.63;;;;;;;;;;5008739;28;20038;-84
2021/12/01 06:00:06;;;;;;;0.52;0.40;;;;;;;;;;4997551;28;20046;-86
2021/12/01 06:02:32;;;;;;;1.33;0.40;;;;;;;;;;5001242;28;20457;-83
2021/12/01 06:04:58;;;;;;;0.30;0.10;;;9.20;99.90;;;;;;5020990;28;20151;-83
2021/12/01 06:07:24;;;;;;;0.65;0.20;;;;;;;;;;5016073;28;20034;-84
2021/12/01 06:09:51;;;;;;;3.15;0.40;;;;;;;;;;5023839;28;20080;-85
2021/12/01 06:12:18;;;;;;;1.20;0.20;;;9.20;99.90;;;;;;5021902;28;20045;-83
2021/12/01 06:14:45;;;;;;;0.73;0.30;;;;;;;;;;5001155;28;20042;-83
2021/12/01 06:17:13;;;;;;;0.50;0.30;;;;;;;;;;5018900;28;20048;-83
2021/12/01 06:19:40;;;;;;;1.58;0.77;;;9.10;99.90;;;;;;5017906;28;20070;-82
2021/12/01 06:22:07;;;;;;;3.53;0.95;;;;;;;;;;5008766;28;20148;-85
2021/12/01 06:24:34;;;;;;;4.10;0.70;;;;;;;;;;5023047;28;20509;-85
2021/12/01 06:27:00;;;;;;;2.05;0.52;;;;;;;;;;5026629;28;20045;-84
2021/12/01 06:29:26;;;;;;;2.10;0.70;;;;;;;;;;5013394;28;20445;-82
2021/12/01 06:31:52;;;;;;;6.13;1.13;;;;;;;;;;5006146;28;20041;-82
2021/12/01 06:34:18;;;;;;;5.65;1.27;;;;;;;;;;5025421;28;20441;-82
2021/12/01 06:36:45;;;;;;;2.80;1.20;;;;;;;;;;5006363;28;20041;-82
2021/12/01 06:39:11;;;;;;;3.38;1.38;;;;;;;;;;5022604;28;20095;-82
2021/12/01 06:41:37;;;;;;;4.88;1.55;;;9.30;99.90;;;;;;5026789;28;20048;-83
2021/12/01 06:44:04;;;;;;;7.68;1.55;;;;;;;;;;5032207;28;20059;-83
2021/12/01 06:46:30;;;;;;;3.95;1.33;;;;;;;;;;5008661;28;20048;-82
2021/12/01 06:48:57;;;;;;;10.55;1.70;;;;;;;;;;5020471;28;20044;-84
2021/12/01 06:51:24;;;;;;;4.95;1.23;;;9.30;99.90;;;;;;5025189;28;20048;-83
2021/12/01 06:53:50;;;;;;;4.22;1.40;;;;;;;;;;5026498;28;20680;-85
2021/12/01 06:56:16;;;;;;;3.88;1.15;;;;;;;;;;5025686;28;20045;-83
2021/12/01 06:58:42;;;;;;;8.65;1.40;;;;;;;;;;5026122;28;20130;-84
2021/12/01 07:01:09;;;;;;;5.35;1.23;;;;;;;;;;5025080;28;20091;-83
2021/12/01 07:03:35;;;;;;;5.35;0.90;;;;;;;;;;5022762;28;20441;-82
2021/12/01 07:06:02;;;;;;;6.40;1.67;;;;;;;;;;5019694;28;20434;-82
2021/12/01 07:08:28;;;;;;;11.63;2.80;;;;;;;;;;5009792;28;20083;-83
2021/12/01 07:10:54;;;;;;;7.97;1.55;;;9.10;99.90;;;;;;5014422;28;20039;-82
2021/12/01 07:13:20;;;;;;;7.60;2.20;;;;;;;;;;5021935;28;20045;-81
2021/12/01 07:15:47;;;;;;;6.78;1.90;;;;;;;;;;5026441;28;20049;-83
2021/12/01 07:18:13;;;;;;;9.18;2.15;;;;;;;;;;5019026;28;20045;-81
2021/12/01 07:20:40;;;;;;;5.57;1.77;;;;;;;;;;5019746;28;20048;-83
2021/12/01 07:23:06;;;;;;;4.78;1.70;;;;;;;;;;5008394;28;20049;-82
2021/12/01 07:25:32;;;;;;;9.10;2.03;;;;;;;;;;5025109;28;20116;-83
2021/12/01 07:27:59;;;;;;;6.82;1.77;;;;;;;;;;5020079;28;20113;-80
2021/12/01 07:30:25;;;;;;;7.85;1.80;;;;;;;;;;5030329;28;20120;-80
2021/12/01 07:32:52;;;;;;;6.47;1.52;;;;;;;;;;5016061;28;20052;-80
2021/12/01 07:35:18;;;;;;;7.25;2.40;;;;;;;;;;5021380;28;20099;-81
2021/12/01 07:37:46;;;;;;;7.18;2.08;;;;;;;;;;5022406;28;20048;-82
2021/12/01 07:40:12;;;;;;;11.35;3.08;;;9.00;99.90;;;;;;5024385;28;20053;-82
2021/12/01 07:42:39;;;;;;;11.80;2.55;;;;;;;;;;5015796;28;20120;-82
2021/12/01 07:45:05;;;;;;;8.75;1.75;;;;;;;;;;5022059;28;20049;-82
2021/12/01 07:47:32;;;;;;;11.30;2.55;;;;;;;;;;5021692;28;20099;-80
2021/12/01 07:49:58;;;;;;;6.13;0.88;;;;;;;;;;5016382;28;20042;-81
2021/12/01 07:52:24;;;;;;;8.68;1.98;;;;;;;;;;5021161;28;20043;-80
2021/12/01 07:54:51;;;;;;;8.95;1.50;;;;;;;;;;5024040;28;20045;-81
2021/12/01 07:57:17;;;;;;;9.85;1.90;;;;;;;;;;5015133;28;20048;-83
2021/12/01 07:59:43;;;;;;;8.02;1.75;;;;;;;;;;5003719;28;20121;-82
2021/12/01 08:02:10;;;;;;;6.82;1.77;;;;;;;;;;5007039;28;20477;-82
2021/12/01 08:04:36;;;;;;;11.75;3.00;;;;;;;;;;5029072;28;20038;-85
2021/12/01 08:07:03;;;;;;;20.80;2.75;;;;;;;;;;5023223;28;20048;-83
2021/12/01 08:09:29;;;;;;;14.75;2.08;;;;;;;;;;5019371;28;20191;-82
2021/12/01 08:11:55;;;;;;;9.18;2.33;;;;;;;;;;5022976;28;20136;-82
2021/12/01 08:14:22;;;;;;;9.70;2.72;;;;;;;;;;5016463;28;20100;-83
2021/12/01 08:16:49;;;;;;;7.03;2.00;;;;;;;;;;5021310;28;20048;-83
2021/12/01 08:19:15;;;;;;;11.98;2.35;;;;;;;;;;5017155;28;20332;-81
2021/12/01 08:21:46;;;;;;;10.45;2.15;;;;;;;;;;5007085;28;20117;-83
2021/12/01 08:24:13;;;;;;;8.45;1.85;;;;;;;;;;5021980;28;20077;-83
2021/12/01 08:26:43;;;;;;;10.65;1.90;;;;;;;;;;5021544;28;20515;-83
2021/12/01 08:29:09;;;;;;;11.10;1.67;;;;;;;;;;5025839;28;20156;-81
2021/12/01 08:31:36;;;;;;;5.72;1.48;;;;;;;;;;5028853;28;20049;-85
2021/12/01 08:34:02;;;;;;;11.40;2.47;;;;;;;;;;5007484;28;20053;-85
2021/12/01 08:36:28;;;;;;;12.23;1.85;;;;;;;;;;5016958;28;20153;-85
2021/12/01 08:38:54;;;;;;;9.25;2.03;;;;;;;;;;5016355;28;20109;-86
2021/12/01 08:41:21;;;;;;;11.88;2.03;;;;;;;;;;5001941;28;20127;-84
2021/12/01 08:43:47;;;;;;;8.55;1.90;;;;;;;;;;5011520;28;20668;-84
2021/12/01 08:46:13;;;;;;;7.80;1.35;;;;;;;;;;5015577;28;20046;-83
2021/12/01 08:48:39;;;;;;;8.13;1.60;;;;;;;;;;5016930;28;20041;-84
2021/12/01 08:51:06;;;;;;;9.10;1.60;;;;;;;;;;5003552;28;20256;-83
2021/12/01 08:53:41;;;;;;;16.35;2.35;;;8.30;99.90;;;;;;5021957;28;20056;-84
2021/12/01 08:56:08;;;;;;;9.55;1.52;;;;;;;;;;5000179;28;20060;-84
2021/12/01 08:58:35;;;;;;;7.07;1.52;;;;;;;;;;5018316;28;20069;-85
2021/12/01 09:01:01;;;;;;;11.20;1.23;;;;;;;;;;5018668;28;20586;-83
2021/12/01 09:03:27;;;;;;;6.18;1.08;;;;;;;;;;5005937;28;20398;-81
2021/12/01 09:05:54;;;;;;;7.47;1.38;;;;;;;;;;5020146;28;20122;-85
2021/12/01 09:08:22;;;;;;;11.07;1.55;;;;;;;;;;5017024;28;20038;-83
2021/12/01 09:10:49;;;;;;;15.63;1.58;;;;;;;;;;5018759;28;20044;-85
2021/12/01 09:13:16;;;;;;;16.85;2.85;;;;;;;;;;5003267;28;20546;-84
2021/12/01 09:15:42;;;;;;;16.05;2.15;;;7.20;99.90;;;;;;5021978;28;20057;-84
2021/12/01 09:18:09;;;;;;;14.88;2.55;;;;;;;;;;5005799;28;20114;-83
2021/12/01 09:20:35;;;;;;;15.27;1.83;;;;;;;;;;5018611;28;20041;-84
2021/12/01 09:23:03;;;;;;;9.18;1.30;;;;;;;;;;5015683;28;20088;-80
2021/12/01 09:25:29;;;;;;;3.65;0.98;;;;;;;;;;5030480;28;20037;-81
2021/12/01 09:27:56;;;;;;;9.68;1.40;;;;;;;;;;5017639;28;20042;-80
2021/12/01 09:30:22;;;;;;;12.50;1.73;;;;;;;;;;5005460;28;20087;-81
2021/12/01 09:32:49;;;;;;;8.90;1.58;;;;;;;;;;5007175;28;20502;-80
2021/12/01 09:35:15;;;;;;;12.05;2.95;;;;;;;;;;5028033;28;20087;-80
2021/12/01 09:37:42;;;;;;;11.50;1.65;;;;;;;;;;5011519;28;20041;-81
2021/12/01 09:40:13;;;;;;;16.20;2.20;;;;;;;;;;5015035;28;20033;-82
2021/12/01 09:42:44;;;;;;;14.43;3.30;;;8.30;99.90;;;;;;5026447;28;20491;-82
2021/12/01 09:45:11;;;;;;;12.80;2.33;;;;;;;;;;5014168;28;20041;-82
2021/12/01 09:47:37;;;;;;;12.05;2.53;;;;;;;;;;5030049;28;20044;-82
2021/12/01 09:50:04;;;;;;;14.35;3.03;;;;;;;;;;5021692;28;20498;-81
2021/12/01 09:52:30;;;;;;;15.25;2.75;;;;;;;;;;5024700;28;20379;-81
2021/12/01 09:54:56;;;;;;;21.05;2.85;;;;;;;;;;5013129;28;20456;-81
2021/12/01 09:57:22;;;;;;;18.67;3.65;;;;;;;;;;5025591;28;20037;-81
2021/12/01 09:59:49;;;;;;;20.30;3.03;;;;;;;;;;5023610;28;20040;-81
2021/12/01 10:02:17;;;;;;;15.30;3.03;;;;;;;;;;5017337;28;20048;-81
2021/12/01 10:04:43;;;;;;;15.77;4.68;;;;;;;;;;5027200;28;20116;-79
2021/12/01 10:07:17;;;;;;;16.27;4.43;;;;;;;;;;5007892;28;20040;-79
2021/12/01 10:09:44;;;;;;;13.43;3.45;;;8.20;99.90;;;;;;5024958;28;20037;-79
2021/12/01 10:12:10;;;;;;;10.73;2.70;;;;;;;;;;5026913;28;20098;-79
2021/12/01 10:14:37;;;;;;;8.00;2.47;;;;;;;;;;5014995;28;20037;-79
2021/12/01 10:17:03;;;;;;;15.23;2.58;;;8.50;99.90;;;;;;5028746;28;20045;-79
2021/12/01 10:19:29;;;;;;;7.45;2.15;;;;;;;;;;5026054;28;20086;-77
2021/12/01 10:21:56;;;;;;;12.35;2.22;;;;;;;;;;5011335;28;20294;-77
2021/12/01 10:24:32;;;;;;;16.20;3.13;;;;;;;;;;5026121;28;20108;-78
2021/12/01 10:26:59;;;;;;;;;;;8.20;99.90;;;;;;5006013;28;20461;-77
2021/12/01 10:29:30;;;;;;;18.98;2.30;;;;;;;;;;5023263;28;20273;-81
2021/12/01 10:31:56;;;;;;;16.90;2.33;;;;;;;;;;5026815;28;20139;-82
2021/12/01 10:34:30;;;;;;;20.52;3.53;;;;;;;;;;5028131;28;20044;-81
2021/12/01 10:37:15;;;;;;;27.15;3.78;;;8.00;99.90;;;;;;5013008;28;20349;-82
2021/12/01 10:39:47;;;;;;;23.33;3.45;;;8.80;99.90;;;;;;5012396;28;20041;-82
2021/12/01 10:42:15;;;;;;;19.33;3.63;;;9.30;99.90;;;;;;5005271;28;20044;-80
2021/12/01 10:45:02;;;;;;;14.00;2.15;;;8.80;99.90;;;;;;5026779;28;20530;-83
2021/12/01 10:47:39;;;;;;;27.38;3.47;;;;;;;;;;5010464;28;20037;-81
2021/12/01 10:50:05;;;;;;;19.55;3.38;;;;;;;;;;5008913;28;20052;-83
2021/12/01 10:52:39;;;;;;;29.38;4.75;;;;;;;;;;5022033;28;20053;-83
2021/12/01 10:55:10;;;;;;;17.80;3.60;;;;;;;;;;5013478;28;20408;-82
2021/12/01 10:57:38;;;;;;;19.42;3.03;;;;;;;;;;5027608;28;20055;-81
2021/12/01 11:00:11;;;;;;;30.60;4.78;;;;;;;;;;5024500;28;20125;-82
2021/12/01 11:02:37;;;;;;;24.92;4.50;;;;;;;;;;5026196;28;20064;-82
2021/12/01 11:05:04;;;;;;;23.17;3.05;;;;;;;;;;5027602;28;20072;-81
2021/12/01 11:07:31;;;;;;;22.58;3.33;;;;;;;;;;5024933;28;20043;-80
2021/12/01 11:10:11;;;;;;;18.63;4.07;;;;;;;;;;5007545;28;20044;-81
2021/12/01 11:12:37;;;;;;;18.10;4.40;;;;;;;;;;5006441;28;20029;-79
2021/12/01 11:15:23;;;;;;;13.80;3.05;;;;;;;;;;5023466;28;20569;-79
2021/12/01 11:17:50;;;;;;;20.15;3.38;;;;;;;;;;5022891;28;20167;-75
2021/12/01 11:20:36;;;;;;;31.38;4.53;;;;;;;;;;5008133;28;20101;-76
2021/12/01 11:23:11;;;;;;;16.77;3.15;;;7.30;99.90;;;;;;5022896;28;20510;-76
2021/12/01 11:25:38;;;;;;;20.90;2.92;;;;;;;;;;5014733;28;20072;-77
2021/12/01 11:28:05;;;;;;;16.90;3.05;;;;;;;;;;5022185;28;20049;-77
2021/12/01 11:30:32;;;;;;;19.15;3.17;;;7.30;99.90;;;;;;5004454;28;20461;-78
2021/12/01 11:32:59;;;;;;;16.88;3.40;;;;;;;;;;5027018;28;20079;-77
2021/12/01 11:35:26;;;;;;;16.40;4.85;;;;;;;;;;5016968;28;20045;-80
2021/12/01 11:37:55;;;;;;;21.42;4.10;;;;;;;;;;5010470;28;20068;-80
2021/12/01 11:40:31;;;;;;;20.02;3.97;;;7.40;99.90;;;;;;5023154;28;20043;-80
2021/12/01 11:42:59;;;;;;;15.40;2.85;;;;;;;;;;5008031;28;20037;-80
2021/12/01 11:45:25;;;;;;;19.60;2.70;;;;;;;;;;5020654;28;20126;-79
2021/12/01 11:47:53;;;;;;;16.50;3.50;;;;;;;;;;5022645;28;20190;-79
2021/12/01 11:50:35;;;;;;;12.95;2.53;;;7.90;99.90;;;;;;5026064;28;20049;-80
2021/12/01 11:53:22;;;;;;;20.20;2.47;;;;;;;;;;5019739;28;20411;-77
2021/12/01 11:55:57;;;;;;;11.40;2.47;;;;;;;;;;5024937;28;20043;-79
2021/12/01 11:58:42;;;;;;;18.20;3.10;;;8.20;99.90;;;;;;5026550;28;20114;-80
2021/12/01 12:01:21;;;;;;;14.83;3.10;;;;;;;;;;4989799;28;20038;-77
2021/12/01 12:03:48;;;;;;;19.27;2.90;;;;;;;;;;5006790;28;20494;-76
2021/12/01 12:06:21;;;;;;;13.50;2.67;;;;;;;;;;5023783;28;20422;-77
2021/12/01 12:08:57;;;;;;;12.93;4.05;;;8.00;99.90;;;;;;5007441;28;20037;-77
2021/12/01 12:11:41;;;;;;;12.68;1.95;;;7.80;99.90;;;;;;5023832;28;20454;-77
2021/12/01 12:14:15;;;;;;;11.38;2.03;;;7.80;99.90;;;;;;5025719;28;20044;-76
2021/12/01 12:17:07;;;;;;;13.10;2.60;;;7.80;99.90;;;;;;5019160;28;20037;-76
2021/12/01 12:19:51;;;;;;;14.25;2.50;;;;;;;;;;5021571;28;20513;-75
2021/12/01 12:22:33;;;;;;;6.43;1.77;;;;;;;;;;5025036;28;20044;-75
2021/12/01 12:25:00;;;;;;;12.55;2.40;;;;;;;;;;5002751;28;20088;-76
2021/12/01 12:27:37;;;;;;;9.45;1.95;;;;;;;;;;5003166;28;20047;-76
2021/12/01 12:30:08;;;;;;;11.45;2.83;;;7.90;99.90;;;;;;5018684;28;20056;-75
2021/12/01 12:32:34;;;;;;;11.93;2.25;;;7.80;99.90;;;;;;5003229;28;20064;-76
2021/12/01 12:35:03;;;;;;;9.05;2.22;;;;;;;;;;5020568;28;20041;-76
2021/12/01 12:37:31;;;;;;;12.07;2.60;;;;;;;;;;5021063;28;20056;-76
2021/12/01 12:39:58;;;;;;;9.68;2.35;;;;;;;;;;5024859;28;20392;-76
2021/12/01 12:42:25;;;;;;;16.65;2.75;;;;;;;;;;5024203;28;20033;-76
2021/12/01 12:44:56;;;;;;;12.32;2.67;;;;;;;;;;5004138;28;20256;-77
2021/12/01 12:47:26;;;;;;;14.02;2.58;;;7.50;99.90;;;;;;5023292;28;20044;-77
2021/12/01 12:50:13;;;;;;;11.60;3.13;;;;;;;;;;5007687;28;20532;-76
2021/12/01 12:52:41;;;;;;;20.75;3.92;;;;;;;;;;5020795;28;20087;-76
2021/12/01 12:55:16;;;;;;;13.93;2.85;;;7.30;99.90;;;;;;5004483;28;20068;-77
2021/12/01 12:57:42;;;;;;;;;;;;;;;;;;5036638;28;20040;-76
2021/12/01 13:00:16;;;;;;;9.50;1.98;;;;;;;;;;5016159;28;19932;-77
2021/12/01 13:02:42;;;;;;;13.85;3.22;;;;;;;;;;5019663;28;20041;-76
2021/12/01 13:05:09;;;;;;;8.63;2.10;;;;;;;;;;5019897;28;20037;-76
2021/12/01 13:07:38;;;;;;;10.50;2.40;;;;;;;;;;5024449;28;20045;-77
2021/12/01 13:10:07;;;;;;;8.25;2.08;;;;;;;;;;5020526;28;20410;-77
2021/12/01 13:12:47;;;;;;;11.85;2.58;;;;;;;;;;5025114;28;20118;-76
2021/12/01 13:15:40;;;;;;;9.35;2.00;;;;;;;;;;5000567;28;20417;-76
2021/12/01 13:18:20;;;;;;;11.10;2.08;;;;;;;;;;5020645;28;20532;-77
2021/12/01 13:20:51;;;;;;;8.77;2.25;;;;;;;;;;5008907;28;20049;-76
2021/12/01 13:23:24;;;;;;;6.75;1.35;;;;;;;;;;5008952;28;20064;-76
2021/12/01 13:25:59;;;;;;;12.57;2.30;;;;;;;;;;5022414;28;20094;-78
2021/12/01 13:28:30;;;;;;;9.55;2.38;;;;;;;;;;5035185;28;20037;-76
2021/12/01 13:30:59;;;;;;;11.93;1.65;;;6.90;99.90;;;;;;5039999;28;20395;-77
2021/12/01 13:33:25;;;;;;;11.13;1.52;;;;;;;;;;5011325;28;20450;-77
2021/12/01 13:35:52;;;;;;;9.35;1.98;;;;;;;;;;5021108;28;20041;-77
2021/12/01 13:38:55;;;;;;;14.90;2.47;;;6.80;99.90;;;;;;5024161;28;20044;-77
2021/12/01 13:41:21;;;;;;;12.85;3.45;;;;;;;;;;5020408;28;20434;-78
2021/12/01 13:43:47;;;;;;;15.93;3.03;;;;;;;;;;5027252;28;20394;-77
2021/12/01 13:46:18;;;;;;;13.77;2.25;;;;;;;;;;5024388;28;20068;-78
2021/12/01 13:48:52;;;;;;;10.45;3.05;;;;;;;;;;5019837;28;20150;-79
2021/12/01 13:51:18;;;;;;;17.60;2.60;;;;;;;;;;5020432;28;20044;-80
2021/12/01 13:53:44;;;;;;;7.03;1.85;;;;;;;;;;5014722;28;20120;-80
2021/12/01 13:56:12;;;;;;;9.38;2.28;;;;;;;;;;5032350;28;20675;-79
2021/12/01 13:58:39;;;;;;;7.93;2.58;;;;;;;;;;5003551;28;20041;-79
2021/12/01 14:01:07;;;;;;;12.63;2.08;;;;;;;;;;5016041;28;20422;-78
2021/12/01 14:03:33;;;;;;;11.90;1.80;;;;;;;;;;5000589;28;20127;-78
2021/12/01 14:06:05;;;;;;;7.63;1.40;;;;;;;;;;5018619;28;20049;-78
2021/12/01 14:08:31;;;;;;;8.30;1.73;;;;;;;;;;5026661;28;20136;-79
2021/12/01 14:11:16;;;;;;;15.38;2.85;;;6.50;99.90;;;;;;5036227;28;20067;-79
2021/12/01 14:13:45;;;;;;;8.02;2.00;;;;;;;;;;5016114;28;20412;-79
2021/12/01 14:16:12;;;;;;;11.73;1.48;;;;;;;;;;5019278;28;20052;-80
2021/12/01 14:18:38;;;;;;;8.82;2.05;;;;;;;;;;5021333;28;20064;-79
2021/12/01 14:21:13;;;;;;;10.98;2.67;;;;;;;;;;5021462;28;20125;-80
2021/12/01 14:23:44;;;;;;;10.68;2.63;;;;;;;;;;5038753;28;20049;-80
2021/12/01 14:26:10;;;;;;;7.97;2.00;;;;;;;;;;5024901;28;20049;-80
2021/12/01 14:28:38;;;;;;;13.50;1.90;;;;;;;;;;5020683;28;20052;-79
2021/12/01 14:31:05;;;;;;;8.90;2.00;;;;;;;;;;5007663;28;20037;-80
2021/12/01 14:33:32;;;;;;;11.70;1.95;;;;;;;;;;5007062;28;20052;-80